Time;durP1;ratioP1;P1;durP2;ratioP2;P2;SDS_P1;SDS_P2;PMS_P1;PMS_P2;Temp;Humidity;BMP_temperature;BMP_pressure;BME280_temperature;BME280_humidity;BME280_pressure;Samples;Min_cycle;Max_cycle;Signal;HPM_P1;HPM_P2
2022/01/05 00:02:24;;;;;;;33.40;18.83;;;230.70;2252.80;;;;;;5013645;28;20080;-63
2022/01/05 00:04:51;;;;;;;31.40;18.08;;;230.70;2252.80;;;;;;5013566;28;20036;-61
2022/01/05 00:07:17;;;;;;;33.47;19.17;;;230.70;2252.80;;;;;;5013864;28;20044;-61
2022/01/05 00:09:43;;;;;;;26.58;18.05;;;230.80;2252.80;;;;;;5013553;28;20471;-61
2022/01/05 00:12:10;;;;;;;32.63;19.77;;;230.90;2252.80;;;;;;5013550;28;20478;-61
2022/01/05 00:14:36;;;;;;;37.10;20.95;;;230.90;2252.80;;;;;;5013778;28;20081;-61
2022/01/05 00:17:02;;;;;;;29.73;19.25;;;231.00;2252.80;;;;;;5013462;28;20030;-60
2022/01/05 00:19:28;;;;;;;32.05;20.20;;;231.00;2252.80;;;;;;5015557;28;20398;-61
2022/01/05 00:21:54;;;;;;;29.83;20.10;;;231.00;2252.80;;;;;;5017426;28;20018;-60
2022/01/05 00:24:20;;;;;;;32.60;18.90;;;231.00;2252.80;;;;;;5017224;28;20505;-74
2022/01/05 00:26:46;;;;;;;38.78;22.45;;;231.00;2252.80;;;;;;5017166;28;20025;-61
2022/01/05 00:29:12;;;;;;;44.45;26.40;;;231.00;2252.80;;;;;;5017143;28;20111;-61
2022/01/05 00:31:38;;;;;;;39.13;22.67;;;231.00;2252.80;;;;;;5017442;28;20061;-61
2022/01/05 00:34:03;;;;;;;38.65;22.65;;;231.00;2252.80;;;;;;5017407;28;20394;-75
2022/01/05 00:36:29;;;;;;;27.33;17.75;;;230.90;2252.80;;;;;;5017149;28;20072;-71
2022/01/05 00:38:55;;;;;;;27.23;16.08;;;230.90;2252.80;;;;;;5016995;28;20045;-75
2022/01/05 00:41:21;;;;;;;26.17;15.90;;;230.90;2252.80;;;;;;5017141;28;20052;-61
2022/01/05 00:43:47;;;;;;;29.48;17.50;;;230.90;2252.80;;;;;;5016855;28;20041;-75
2022/01/05 00:46:13;;;;;;;35.35;18.95;;;230.90;2252.80;;;;;;5017070;28;20080;-61
2022/01/05 00:48:39;;;;;;;35.75;20.30;;;230.90;2252.80;;;;;;5016811;28;20096;-61
2022/01/05 00:51:09;;;;;;;30.95;18.15;;;230.90;2252.80;;;;;;4999176;28;20022;-60
2022/01/05 00:53:36;;;;;;;35.75;18.88;;;230.90;2252.80;;;;;;5016844;28;20026;-61
2022/01/05 00:56:03;;;;;;;35.15;19.73;;;230.90;2252.80;;;;;;5016686;28;20029;-61
2022/01/05 00:58:29;;;;;;;35.53;20.98;;;230.90;2252.80;;;;;;5016927;28;20478;-61
2022/01/05 01:00:56;;;;;;;28.70;17.65;;;230.90;2252.80;;;;;;5016475;28;20076;-61
2022/01/05 01:03:22;;;;;;;26.30;15.65;;;230.90;2252.80;;;;;;4999638;28;20030;-61
2022/01/05 01:05:48;;;;;;;22.25;14.23;;;230.90;2252.80;;;;;;5016450;28;20025;-61
2022/01/05 01:08:14;;;;;;;22.50;14.50;;;230.90;2252.80;;;;;;5016486;28;20421;-61
2022/01/05 01:10:40;;;;;;;23.08;14.20;;;230.80;2252.80;;;;;;5016371;28;20112;-62
2022/01/05 01:13:06;;;;;;;27.02;14.48;;;230.70;2252.80;;;;;;5016644;28;20033;-61
2022/01/05 01:15:32;;;;;;;20.52;12.85;;;230.70;2252.80;;;;;;5016328;28;20500;-61
2022/01/05 01:17:58;;;;;;;20.95;12.18;;;230.60;2252.80;;;;;;5016476;28;20026;-60
2022/01/05 01:20:24;;;;;;;19.52;12.65;;;230.70;2252.80;;;;;;5016230;28;20506;-61
2022/01/05 01:22:50;;;;;;;19.70;12.70;;;230.70;2252.80;;;;;;5016521;28;20026;-61
2022/01/05 01:25:16;;;;;;;17.67;11.65;;;230.60;2252.80;;;;;;5016387;28;20157;-61
2022/01/05 01:27:43;;;;;;;20.48;12.40;;;230.60;2252.80;;;;;;5016123;28;20490;-61
2022/01/05 01:30:10;;;;;;;18.85;12.10;;;230.60;2252.80;;;;;;5014995;28;20382;-61
2022/01/05 01:32:37;;;;;;;16.75;10.82;;;230.60;2252.80;;;;;;5016624;28;20046;-61
2022/01/05 01:35:05;;;;;;;19.20;11.30;;;230.60;2252.80;;;;;;5016281;28;20018;-61
2022/01/05 01:37:31;;;;;;;17.52;11.60;;;230.60;2252.80;;;;;;5015902;28;20424;-61
2022/01/05 01:39:56;;;;;;;17.52;10.48;;;230.60;2252.80;;;;;;5015716;28;20057;-60
2022/01/05 01:42:22;;;;;;;14.55;10.15;;;230.70;2252.80;;;;;;5015739;28;20028;-60
2022/01/05 01:44:48;;;;;;;16.38;11.02;;;230.70;2252.80;;;;;;5015767;28;20033;-60
2022/01/05 01:47:14;;;;;;;18.25;11.30;;;230.80;2252.80;;;;;;5015669;28;20080;-61
2022/01/05 01:49:41;;;;;;;17.75;10.65;;;230.80;2252.80;;;;;;5015687;28;20026;-61
2022/01/05 01:52:07;;;;;;;16.90;10.07;;;230.90;2252.80;;;;;;5015956;28;20521;-61
2022/01/05 01:54:35;;;;;;;19.08;11.55;;;230.90;2252.80;;;;;;5015962;28;20092;-61
2022/01/05 01:57:02;;;;;;;16.92;11.07;;;230.80;2252.80;;;;;;5015851;28;20072;-61
2022/01/05 01:59:28;;;;;;;23.52;13.55;;;230.80;2252.80;;;;;;5015478;28;20045;-61
2022/01/05 02:01:55;;;;;;;19.48;12.05;;;230.70;2252.80;;;;;;5015505;28;20151;-61
2022/01/05 02:04:21;;;;;;;20.55;12.10;;;230.60;2252.80;;;;;;5015438;28;20136;-61
2022/01/05 02:06:48;;;;;;;17.52;11.63;;;230.60;2252.80;;;;;;5015427;28;20483;-61
2022/01/05 02:09:14;;;;;;;19.27;11.18;;;230.60;2252.80;;;;;;5015419;28;20493;-61
2022/01/05 02:11:40;;;;;;;19.15;12.40;;;230.50;2252.80;;;;;;5015328;28;20033;-63
2022/01/05 02:14:06;;;;;;;20.67;12.05;;;230.50;2252.80;;;;;;5015255;28;20164;-61
2022/01/05 02:16:34;;;;;;;16.92;11.18;;;230.40;2252.80;;;;;;5015391;28;20080;-61
2022/01/05 02:19:01;;;;;;;16.88;11.45;;;230.50;2252.80;;;;;;5015397;28;20096;-62
2022/01/05 02:21:33;;;;;;;17.30;11.98;;;230.50;2252.80;;;;;;5015127;28;20049;-61
2022/01/05 02:24:00;;;;;;;15.93;10.85;;;230.50;2252.80;;;;;;5015291;28;20108;-61
2022/01/05 02:26:26;;;;;;;17.88;10.75;;;230.40;2252.80;;;;;;5015176;28;20069;-61
2022/01/05 02:28:52;;;;;;;17.38;11.38;;;230.40;2252.80;;;;;;5014977;28;20113;-63
2022/01/05 02:31:18;;;;;;;16.25;10.45;;;230.50;2252.80;;;;;;5014986;28;20030;-61
2022/01/05 02:33:45;;;;;;;17.58;10.18;;;230.40;2252.80;;;;;;5014915;28;20092;-76
2022/01/05 02:36:14;;;;;;;15.43;9.52;;;230.40;2252.80;;;;;;5015107;28;20493;-61
2022/01/05 02:38:40;;;;;;;17.50;10.38;;;230.40;2252.80;;;;;;5014686;28;20483;-75
2022/01/05 02:41:08;;;;;;;13.27;8.60;;;230.40;2252.80;;;;;;5014248;28;20041;-62
2022/01/05 02:43:36;;;;;;;13.25;8.60;;;230.40;2252.80;;;;;;5014940;28;20040;-61
2022/01/05 02:46:02;;;;;;;12.18;7.72;;;230.50;2252.80;;;;;;5014922;28;20021;-77
2022/01/05 02:48:28;;;;;;;11.38;7.47;;;230.60;2252.80;;;;;;5014542;28;20034;-61
2022/01/05 02:50:58;;;;;;;12.15;6.80;;;230.70;2252.80;;;;;;5014798;28;20087;-61
2022/01/05 02:53:24;;;;;;;11.57;7.05;;;230.80;2252.80;;;;;;5014808;28;20164;-61
2022/01/05 02:55:50;;;;;;;12.02;7.15;;;230.90;2252.80;;;;;;5014750;28;20416;-60
2022/01/05 02:58:16;;;;;;;11.48;6.95;;;231.00;2252.80;;;;;;5014646;28;20091;-61
2022/01/05 03:00:43;;;;;;;13.77;7.75;;;231.00;2252.80;;;;;;5014406;28;20022;-71
2022/01/05 03:03:08;;;;;;;12.25;7.07;;;231.10;2252.80;;;;;;5014268;28;20467;-61
2022/01/05 03:05:34;;;;;;;10.57;6.93;;;231.10;2252.80;;;;;;5014389;28;20110;-61
2022/01/05 03:08:00;;;;;;;10.70;6.97;;;231.10;2252.80;;;;;;5014241;28;20026;-61
2022/01/05 03:10:26;;;;;;;11.60;7.22;;;231.10;2252.80;;;;;;5014495;28;20033;-61
2022/01/05 03:12:52;;;;;;;11.13;7.10;;;231.10;2252.80;;;;;;5014464;28;20522;-61
2022/01/05 03:15:18;;;;;;;10.13;6.47;;;231.10;2252.80;;;;;;5014174;28;20495;-61
2022/01/05 03:17:44;;;;;;;12.50;6.95;;;231.20;2252.80;;;;;;5014059;28;20104;-61
2022/01/05 03:20:12;;;;;;;10.82;5.78;;;231.10;2252.80;;;;;;5014068;28;20062;-64
2022/01/05 03:22:39;;;;;;;9.93;5.68;;;231.20;2252.80;;;;;;5014061;28;20021;-72
2022/01/05 03:25:06;;;;;;;8.23;5.63;;;231.20;2252.80;;;;;;5014174;28;20459;-61
2022/01/05 03:27:32;;;;;;;9.90;6.07;;;231.20;2252.80;;;;;;5014234;28;20021;-61
2022/01/05 03:29:58;;;;;;;9.93;6.40;;;231.20;2252.80;;;;;;5014113;28;20030;-70
2022/01/05 03:32:26;;;;;;;9.57;6.00;;;231.20;2252.80;;;;;;5014273;28;20524;-63
2022/01/05 03:34:52;;;;;;;8.98;5.70;;;231.20;2252.80;;;;;;5013947;28;20543;-63
2022/01/05 03:37:18;;;;;;;9.40;6.38;;;231.20;2252.80;;;;;;5014132;28;20034;-64
2022/01/05 03:39:44;;;;;;;10.07;6.15;;;231.20;2252.80;;;;;;5013562;28;20406;-63
2022/01/05 03:42:10;;;;;;;9.23;6.30;;;231.20;2252.80;;;;;;5013825;28;20037;-74
2022/01/05 03:44:36;;;;;;;9.07;5.53;;;231.10;2252.80;;;;;;5013736;28;20204;-73
2022/01/05 03:47:02;;;;;;;11.55;6.68;;;231.10;2252.80;;;;;;5013720;28;20033;-71
2022/01/05 03:49:28;;;;;;;28.67;6.72;;;231.10;2252.80;;;;;;5013941;28;20056;-63
2022/01/05 03:51:54;;;;;;;9.70;6.07;;;231.10;2252.80;;;;;;5013886;28;20482;-63
2022/01/05 03:54:20;;;;;;;11.45;5.93;;;231.10;2252.80;;;;;;5012978;28;20040;-63
2022/01/05 03:56:46;;;;;;;10.50;5.70;;;231.10;2252.80;;;;;;4996034;28;20116;-73
2022/01/05 03:59:12;;;;;;;9.98;5.50;;;231.00;2252.80;;;;;;5013808;28;20037;-63
2022/01/05 04:01:37;;;;;;;10.50;5.38;;;231.00;2252.80;;;;;;5013549;28;20116;-63
2022/01/05 04:04:04;;;;;;;9.85;5.80;;;231.00;2252.80;;;;;;5013580;28;20038;-73
2022/01/05 04:06:29;;;;;;;10.48;5.55;;;231.00;2252.80;;;;;;5013669;28;20025;-63
2022/01/05 04:08:55;;;;;;;8.55;5.43;;;230.90;2252.80;;;;;;4995922;28;20049;-64
2022/01/05 04:11:21;;;;;;;8.93;5.55;;;230.90;2252.80;;;;;;5013809;28;20105;-63
2022/01/05 04:13:47;;;;;;;7.00;4.47;;;230.90;2252.80;;;;;;5013518;28;20501;-63
2022/01/05 04:16:13;;;;;;;9.38;5.95;;;230.90;2252.80;;;;;;5013386;28;20018;-71
2022/01/05 04:18:39;;;;;;;14.38;7.55;;;230.90;2252.80;;;;;;5013406;28;20087;-64
2022/01/05 04:21:05;;;;;;;10.32;5.93;;;230.90;2252.80;;;;;;5013353;28;20046;-64
2022/01/05 04:23:31;;;;;;;9.02;5.70;;;230.90;2252.80;;;;;;5013414;28;20022;-63
2022/01/05 04:25:56;;;;;;;9.95;5.47;;;230.90;2252.80;;;;;;5013322;28;20029;-64
2022/01/05 04:28:22;;;;;;;11.32;5.75;;;230.90;2252.80;;;;;;5013659;28;20097;-63
2022/01/05 04:30:48;;;;;;;9.30;5.68;;;230.90;2252.80;;;;;;5013631;28;20509;-70
2022/01/05 04:33:14;;;;;;;8.98;5.03;;;230.80;2252.80;;;;;;5013344;28;20018;-63
2022/01/05 04:35:40;;;;;;;9.10;5.88;;;230.80;2252.80;;;;;;5013240;28;20502;-64
2022/01/05 04:38:06;;;;;;;11.15;5.55;;;230.80;2252.80;;;;;;5013277;28;20030;-65
2022/01/05 04:40:32;;;;;;;8.40;5.47;;;230.70;2252.80;;;;;;5013050;28;20083;-64
2022/01/05 04:42:58;;;;;;;11.00;5.78;;;230.80;2252.80;;;;;;5013272;28;20498;-63
2022/01/05 04:45:24;;;;;;;7.93;5.47;;;230.80;2252.80;;;;;;5013220;28;20018;-63
2022/01/05 04:47:50;;;;;;;8.07;5.45;;;230.80;2252.80;;;;;;5013217;28;20104;-63
2022/01/05 04:50:18;;;;;;;10.75;5.85;;;230.80;2252.80;;;;;;5013151;28;20058;-63
2022/01/05 04:52:44;;;;;;;8.23;5.00;;;230.80;2252.80;;;;;;5013057;28;20026;-72
2022/01/05 04:55:10;;;;;;;8.45;5.25;;;230.80;2252.80;;;;;;5013217;28;20108;-72
2022/01/05 04:57:36;;;;;;;9.93;5.40;;;230.90;2252.80;;;;;;5013365;28;20434;-63
2022/01/05 05:00:03;;;;;;;11.60;5.68;;;230.90;2252.80;;;;;;5013130;28;20053;-63
2022/01/05 05:02:29;;;;;;;8.38;5.85;;;230.90;2252.80;;;;;;5012977;28;20037;-63
2022/01/05 05:04:55;;;;;;;8.25;5.43;;;230.90;2252.80;;;;;;5014145;28;20030;-63
2022/01/05 05:07:21;;;;;;;8.38;5.53;;;231.00;2252.80;;;;;;5016779;28;20387;-64
2022/01/05 05:09:47;;;;;;;10.02;6.80;;;231.00;2252.80;;;;;;5016720;28;20026;-63
2022/01/05 05:12:12;;;;;;;12.30;7.15;;;231.10;2252.80;;;;;;5016482;28;20379;-63
2022/01/05 05:14:38;;;;;;;13.80;8.90;;;231.10;2252.80;;;;;;5016706;28;20030;-64
2022/01/05 05:17:05;;;;;;;13.65;8.60;;;231.10;2252.80;;;;;;5016405;28;20045;-63
2022/01/05 05:19:31;;;;;;;10.85;5.80;;;231.10;2252.80;;;;;;5016167;28;20037;-63
2022/01/05 05:21:57;;;;;;;9.02;6.07;;;231.10;2252.80;;;;;;5016621;28;20154;-63
2022/01/05 05:24:23;;;;;;;7.65;5.85;;;231.10;2252.80;;;;;;5016190;28;20552;-63
2022/01/05 05:26:49;;;;;;;8.50;5.68;;;231.20;2252.80;;;;;;5016237;28;20022;-64
2022/01/05 05:29:15;;;;;;;8.55;6.03;;;231.30;2252.80;;;;;;5016370;28;20371;-63
2022/01/05 05:31:41;;;;;;;7.72;5.65;;;231.30;2252.80;;;;;;5016074;28;20041;-64
2022/01/05 05:34:07;;;;;;;9.32;5.90;;;231.30;2252.80;;;;;;5016093;28;20029;-63
2022/01/05 05:36:33;;;;;;;8.50;5.22;;;231.30;2252.80;;;;;;5016250;28;20029;-63
2022/01/05 05:38:59;;;;;;;10.68;5.63;;;231.30;2252.80;;;;;;5015784;28;20419;-64
2022/01/05 05:41:24;;;;;;;11.05;6.00;;;231.20;2252.80;;;;;;5016125;28;20034;-63
2022/01/05 05:43:50;;;;;;;9.65;5.95;;;231.20;2252.80;;;;;;5016038;28;20025;-63
2022/01/05 05:46:17;;;;;;;8.98;5.72;;;231.20;2252.80;;;;;;5015970;28;20018;-63
2022/01/05 05:48:43;;;;;;;9.15;5.45;;;231.10;2252.80;;;;;;5016145;28;20430;-64
2022/01/05 05:51:10;;;;;;;8.25;5.28;;;231.10;2252.80;;;;;;5015669;28;20026;-69
2022/01/05 05:53:36;;;;;;;9.82;6.07;;;231.10;2252.80;;;;;;5015534;28;20018;-64
2022/01/05 05:56:02;;;;;;;9.65;6.10;;;231.10;2252.80;;;;;;5015526;28;20037;-63
2022/01/05 05:58:27;;;;;;;9.27;5.93;;;231.10;2252.80;;;;;;5015537;28;20026;-63
2022/01/05 06:00:53;;;;;;;11.90;6.57;;;231.10;2252.80;;;;;;5015740;28;20478;-63
2022/01/05 06:03:19;;;;;;;10.10;6.97;;;231.10;2252.80;;;;;;5015758;28;20359;-63
2022/01/05 06:05:45;;;;;;;14.70;7.03;;;231.10;2252.80;;;;;;5015370;28;20443;-64
2022/01/05 06:08:11;;;;;;;12.35;6.90;;;231.00;2252.80;;;;;;5015771;28;20026;-72
2022/01/05 06:10:37;;;;;;;12.07;6.28;;;231.00;2252.80;;;;;;5015240;28;20029;-63
2022/01/05 06:13:03;;;;;;;12.15;6.35;;;231.00;2252.80;;;;;;5015304;28;20076;-63
2022/01/05 06:15:29;;;;;;;11.32;7.28;;;231.00;2252.80;;;;;;5015224;28;20041;-63
2022/01/05 06:17:54;;;;;;;11.98;6.85;;;231.00;2252.80;;;;;;5014414;28;20026;-64
2022/01/05 06:20:21;;;;;;;12.32;6.47;;;231.00;2252.80;;;;;;5015109;28;20030;-63
2022/01/05 06:22:47;;;;;;;13.55;6.75;;;231.00;2252.80;;;;;;5015122;28;20045;-63
2022/01/05 06:25:13;;;;;;;11.00;6.35;;;231.00;2252.80;;;;;;5015058;28;20064;-63
2022/01/05 06:27:39;;;;;;;10.48;7.10;;;231.00;2252.80;;;;;;5014924;28;20550;-64
2022/01/05 06:30:07;;;;;;;11.68;7.13;;;231.00;2252.80;;;;;;5014952;28;20032;-64
2022/01/05 06:32:34;;;;;;;9.82;6.43;;;231.00;2252.80;;;;;;5014935;28;20017;-65
2022/01/05 06:35:03;;;;;;;11.68;7.72;;;231.00;2252.80;;;;;;5014856;28;20030;-63
2022/01/05 06:37:29;;;;;;;12.40;8.18;;;231.00;2252.80;;;;;;5014964;28;20057;-73
2022/01/05 06:39:56;;;;;;;14.15;8.23;;;231.00;2252.80;;;;;;5014470;28;20081;-72
2022/01/05 06:42:23;;;;;;;9.40;7.20;;;231.00;2252.80;;;;;;5014620;28;20546;-62
2022/01/05 06:44:48;;;;;;;11.52;7.90;;;231.00;2252.80;;;;;;5014603;28;20030;-63
2022/01/05 06:47:15;;;;;;;13.38;7.00;;;231.00;2252.80;;;;;;5014808;28;20459;-63
2022/01/05 06:49:41;;;;;;;15.88;8.82;;;231.10;2252.80;;;;;;5014773;28;20034;-63
2022/01/05 06:52:07;;;;;;;13.85;9.18;;;231.10;2252.80;;;;;;5014500;28;20117;-70
2022/01/05 06:54:32;;;;;;;14.90;9.70;;;231.10;2252.80;;;;;;5014413;28;20030;-69
2022/01/05 06:56:58;;;;;;;14.20;9.80;;;231.10;2252.80;;;;;;5014765;28;20022;-63
2022/01/05 06:59:24;;;;;;;16.42;11.50;;;231.20;2252.80;;;;;;5014331;28;20073;-63
2022/01/05 07:01:50;;;;;;;22.70;13.45;;;231.20;2252.80;;;;;;5014277;28;20041;-63
2022/01/05 07:04:16;;;;;;;16.33;10.65;;;231.30;2252.80;;;;;;5014070;28;20033;-73
2022/01/05 07:06:42;;;;;;;18.33;10.75;;;231.30;2252.80;;;;;;5014282;28;20080;-68
2022/01/05 07:09:08;;;;;;;15.63;9.52;;;231.30;2252.80;;;;;;5014142;28;20030;-69
2022/01/05 07:11:35;;;;;;;15.27;10.10;;;256.00;2252.80;;;;;;5014177;28;20079;-73
2022/01/05 07:14:01;;;;;;;14.15;9.55;;;256.00;2252.80;;;;;;5014155;28;20561;-64
2022/01/05 07:16:27;;;;;;;14.35;9.80;;;256.00;2252.80;;;;;;5014145;28;20030;-73
2022/01/05 07:18:53;;;;;;;12.20;8.20;;;256.10;2252.80;;;;;;5013914;28;20042;-63
2022/01/05 07:21:19;;;;;;;36.85;10.77;;;256.20;2252.80;;;;;;5014370;28;20041;-66
2022/01/05 07:23:45;;;;;;;15.27;8.93;;;256.20;2252.80;;;;;;5014330;28;20460;-65
2022/01/05 07:26:11;;;;;;;16.63;10.27;;;256.30;2252.80;;;;;;5013907;28;20029;-65
2022/01/05 07:28:37;;;;;;;16.10;10.13;;;256.30;2252.80;;;;;;5013073;28;20052;-66
2022/01/05 07:31:03;;;;;;;18.52;12.02;;;256.40;2252.80;;;;;;5014227;28;20034;-69
2022/01/05 07:33:29;;;;;;;20.95;12.75;;;256.40;2252.80;;;;;;5013831;28;20037;-66
2022/01/05 07:35:55;;;;;;;23.00;13.55;;;256.50;2252.80;;;;;;5013823;28;20069;-66
2022/01/05 07:38:23;;;;;;;26.35;16.10;;;256.50;2252.80;;;;;;5013932;28;20065;-65
2022/01/05 07:40:49;;;;;;;24.77;16.88;;;256.50;2252.80;;;;;;5013663;28;20093;-66
2022/01/05 07:43:15;;;;;;;25.80;17.42;;;256.50;2252.80;;;;;;5013774;28;20061;-70
2022/01/05 07:45:41;;;;;;;28.55;19.38;;;256.60;2252.80;;;;;;5013694;28;20026;-65
2022/01/05 07:48:07;;;;;;;31.15;18.52;;;256.60;2252.80;;;;;;5013982;28;20076;-70
2022/01/05 07:50:33;;;;;;;30.27;16.40;;;256.70;2252.80;;;;;;5013737;28;20072;-70
2022/01/05 07:53:04;;;;;;;26.33;16.33;;;256.80;2252.80;;;;;;5013676;28;20121;-69
2022/01/05 07:55:30;;;;;;;29.00;16.83;;;256.80;2252.80;;;;;;5013638;28;20030;-66
2022/01/05 07:57:58;;;;;;;33.70;18.48;;;256.90;2252.80;;;;;;5013864;28;20026;-69
2022/01/05 08:00:24;;;;;;;34.80;18.98;;;281.60;2278.40;;;;;;5013650;28;20058;-70
2022/01/05 08:02:50;;;;;;;30.83;20.75;;;281.70;2278.40;;;;;;5013880;28;20475;-65
2022/01/05 08:05:16;;;;;;;32.20;20.45;;;281.80;2278.40;;;;;;5013493;28;20033;-70
2022/01/05 08:07:42;;;;;;;53.15;31.92;;;281.90;2278.40;;;;;;5013767;28;20018;-65
2022/01/05 08:10:08;;;;;;;75.63;49.45;;;281.90;2278.40;;;;;;5013531;28;20030;-65
2022/01/05 08:12:34;;;;;;;78.43;58.50;;;282.00;2278.40;;;;;;5013565;28;20018;-70
2022/01/05 08:15:00;;;;;;;41.88;30.73;;;282.00;2278.40;;;;;;5013421;28;20141;-69
2022/01/05 08:17:26;;;;;;;33.53;23.80;;;282.10;2278.40;;;;;;5013481;28;20033;-65
2022/01/05 08:19:52;;;;;;;35.92;22.92;;;282.10;2278.40;;;;;;5013657;28;20034;-66
2022/01/05 08:22:18;;;;;;;40.95;25.33;;;282.20;2278.40;;;;;;5013378;28;20037;-65
2022/01/05 08:24:44;;;;;;;41.33;28.02;;;282.20;2278.40;;;;;;5013322;28;20040;-65
2022/01/05 08:27:10;;;;;;;45.50;29.45;;;282.30;2278.40;;;;;;5013282;28;20033;-65
2022/01/05 08:29:36;;;;;;;44.47;29.65;;;282.30;2278.40;;;;;;5013353;28;20030;-70
2022/01/05 08:32:04;;;;;;;86.63;39.17;;;282.30;2278.40;;;;;;5013265;28;20026;-70
2022/01/05 08:34:31;;;;;;;63.47;34.60;;;282.30;2278.40;;;;;;5013552;28;20026;-65
2022/01/05 08:36:58;;;;;;;60.70;33.58;;;282.40;2278.40;;;;;;5013261;28;20030;-64
2022/01/05 08:39:24;;;;;;;76.15;38.45;;;282.50;2278.40;;;;;;5013344;28;20054;-64
2022/01/05 08:41:51;;;;;;;78.50;43.67;;;307.20;2304.00;;;;;;5017004;28;20113;-64
2022/01/05 08:44:17;;;;;;;82.15;44.67;;;307.20;2304.00;;;;;;5017550;28;20022;-64
2022/01/05 08:46:43;;;;;;;84.93;43.78;;;307.30;2304.00;;;;;;5016948;28;20026;-70
2022/01/05 08:49:10;;;;;;;67.95;38.90;;;307.30;2304.00;;;;;;5017159;28;20101;-66
2022/01/05 08:51:37;;;;;;;48.38;25.95;;;307.40;2304.00;;;;;;5017070;28;20018;-65
2022/01/05 08:54:04;;;;;;;29.98;20.30;;;307.50;2304.00;;;;;;5017020;28;20037;-64
2022/01/05 08:56:30;;;;;;;50.72;23.10;;;307.60;2304.00;;;;;;5016637;28;20527;-66
2022/01/05 08:58:56;;;;;;;181.75;75.43;;;307.70;2304.00;;;;;;5016632;28;20109;-70
2022/01/05 09:01:23;;;;;;;142.15;58.30;;;307.90;2304.00;;;;;;5016620;28;20049;-65
2022/01/05 09:03:52;;;;;;;77.70;37.10;;;307.90;2304.00;;;;;;5022881;28;20032;-65
2022/01/05 09:06:18;;;;;;;37.45;20.13;;;332.80;2304.00;;;;;;5023626;28;20037;-66
2022/01/05 09:08:44;;;;;;;31.70;19.98;;;332.80;2329.60;;;;;;5025845;28;20032;-65
2022/01/05 09:11:10;;;;;;;32.03;19.05;;;332.80;2329.60;;;;;;5024991;28;20116;-66
2022/01/05 09:13:36;;;;;;;35.33;20.17;;;333.00;2304.00;;;;;;5022803;28;20057;-66
2022/01/05 09:16:03;;;;;;;36.83;18.05;;;333.10;2304.00;;;;;;5025398;28;20025;-65
2022/01/05 09:18:29;;;;;;;36.70;20.42;;;333.20;2278.40;;;;;;5024211;28;20121;-65
2022/01/05 09:20:55;;;;;;;35.35;19.83;;;333.30;2252.80;;;;;;5023915;28;20025;-65
2022/01/05 09:23:21;;;;;;;39.58;22.88;;;333.40;2252.80;;;;;;5025975;28;20079;-69
2022/01/05 09:25:47;;;;;;;37.92;22.42;;;333.50;2252.80;;;;;;5024420;28;20026;-65
2022/01/05 09:28:12;;;;;;;30.75;20.85;;;333.60;2227.20;;;;;;5023693;28;20459;-65
2022/01/05 09:30:38;;;;;;;27.73;19.85;;;333.60;2201.60;;;;;;5023554;28;20041;-65
2022/01/05 09:33:04;;;;;;;40.13;20.60;;;358.40;2201.60;;;;;;5025532;28;20068;-64
2022/01/05 09:35:33;;;;;;;99.57;25.92;;;358.40;2201.60;;;;;;5024479;28;20108;-65
2022/01/05 09:38:09;;;;;;;32.65;18.60;;;358.50;2201.60;;;;;;5023207;28;20025;-65
2022/01/05 09:43:21;;;;;;;42.05;22.08;;;358.60;2227.20;;;;;;5024983;28;20059;-65
2022/01/05 09:46:07;;;;;;;48.03;25.60;;;358.50;2201.60;;;;;;5023441;28;20025;-64
2022/01/05 09:48:38;;;;;;;61.08;32.10;;;358.50;2227.20;;;;;;5022799;28;20030;-63
2022/01/05 09:51:12;;;;;;;42.85;22.40;;;358.50;2252.80;;;;;;5022164;28;20080;-63
2022/01/05 09:53:38;;;;;;;37.75;19.75;;;358.50;2278.40;;;;;;5023804;28;20041;-63
2022/01/05 09:56:06;;;;;;;33.72;18.55;;;358.50;2304.00;;;;;;5025316;28;20021;-63
2022/01/05 09:58:32;;;;;;;41.78;22.35;;;358.60;2304.00;;;;;;5023756;28;20029;-65
2022/01/05 10:00:59;;;;;;;40.00;20.92;;;358.50;2329.60;;;;;;5023263;28;20029;-65
2022/01/05 10:03:26;;;;;;;39.00;24.42;;;358.60;2329.60;;;;;;5024922;28;20017;-65
2022/01/05 10:05:52;;;;;;;44.95;27.10;;;358.60;2304.00;;;;;;5023866;28;20029;-67
2022/01/05 10:08:18;;;;;;;47.90;29.05;;;358.70;2329.60;;;;;;5023210;28;20030;-63
2022/01/05 10:10:44;;;;;;;49.60;29.17;;;358.70;2304.00;;;;;;5024809;28;20101;-63
2022/01/05 10:13:10;;;;;;;48.33;29.98;;;358.70;2304.00;;;;;;5023276;28;20089;-64
2022/01/05 10:15:36;;;;;;;40.47;23.98;;;358.70;2304.00;;;;;;5023399;28;20471;-63
2022/01/05 10:18:11;;;;;;;37.50;21.77;;;358.80;2304.00;;;;;;5024539;28;20079;-63
2022/01/05 10:20:38;;;;;;;22.85;15.63;;;358.80;2329.60;;;;;;5024406;28;20422;-63
2022/01/05 10:23:04;;;;;;;23.13;14.48;;;358.80;2329.60;;;;;;5022781;28;20442;-63
2022/01/05 10:25:30;;;;;;;20.45;13.73;;;358.80;2329.60;;;;;;5023922;28;20060;-64
2022/01/05 10:28:03;;;;;;;20.15;14.15;;;358.80;2329.60;;;;;;5023846;28;20026;-64
2022/01/05 10:30:47;;;;;;;23.43;15.03;;;358.80;2329.60;;;;;;5021147;28;20088;-63
2022/01/05 10:33:13;;;;;;;25.17;15.93;;;358.80;2329.60;;;;;;5021676;28;20463;-62
2022/01/05 10:35:39;;;;;;;25.35;17.00;;;358.80;2329.60;;;;;;5022557;28;20037;-63
2022/01/05 10:38:15;;;;;;;26.02;14.13;;;358.80;2329.60;;;;;;5021283;28;20026;-64
2022/01/05 10:40:42;;;;;;;26.98;16.20;;;358.90;2329.60;;;;;;5013117;28;20532;-64
2022/01/05 10:43:13;;;;;;;38.13;18.60;;;358.90;2329.60;;;;;;5014592;28;20088;-63
2022/01/05 10:45:48;;;;;;;42.83;22.33;;;358.90;2329.60;;;;;;5014641;28;20026;-63
2022/01/05 10:48:24;;;;;;;56.40;27.48;;;359.00;2329.60;;;;;;5014578;28;20037;-64
2022/01/05 10:51:04;;;;;;;56.70;29.45;;;359.00;2329.60;;;;;;5014538;28;20071;-64
2022/01/05 10:53:30;;;;;;;55.05;27.52;;;359.20;2329.60;;;;;;5014838;28;20120;-64
2022/01/05 10:55:55;;;;;;;54.20;28.23;;;359.20;2329.60;;;;;;5014740;28;20461;-63
2022/01/05 10:58:21;;;;;;;49.17;28.17;;;359.30;2329.60;;;;;;5014589;28;20037;-64
2022/01/05 11:00:52;;;;;;;61.90;33.45;;;384.00;2329.60;;;;;;5014421;28;20475;-63
2022/01/05 11:03:27;;;;;;;71.32;37.47;;;;;;;;;;5014237;28;20545;-63
2022/01/05 11:06:00;;;;;;;59.85;33.03;;;;;;;;;;5014320;28;20105;-63
2022/01/05 11:08:26;;;;;;;97.03;60.75;;;;;;;;;;5014280;28;20087;-62
2022/01/05 11:10:52;;;;;;;115.35;78.45;;;;;;;;;;5014223;28;20022;-63
2022/01/05 11:13:18;;;;;;;66.93;43.00;;;384.60;2304.00;;;;;;5014254;28;20030;-63
2022/01/05 11:15:44;;;;;;;92.40;66.15;;;384.70;2278.40;;;;;;5013933;28;20104;-69
2022/01/05 11:18:21;;;;;;;423.60;313.00;;;384.60;2278.40;;;;;;5014099;28;20493;-64
2022/01/05 11:20:55;;;;;;;839.17;548.10;;;384.80;2252.80;;;;;;5012142;28;20034;-62
2022/01/05 11:23:26;;;;;;;138.57;96.20;;;409.60;2252.80;;;;;;5008434;28;20564;-61
2022/01/05 11:25:55;;;;;;;178.52;126.45;;;409.70;2252.80;;;;;;5007830;28;20022;-62
2022/01/05 11:28:23;;;;;;;62.45;42.75;;;410.00;2176.00;;;;;;5005333;28;20419;-62
2022/01/05 11:30:51;;;;;;;32.72;17.25;;;410.30;2124.80;;;;;;5006503;28;20025;-68
2022/01/05 11:33:18;;;;;;;429.98;342.58;;;435.20;2124.80;;;;;;5012380;28;20402;-63
2022/01/05 11:35:45;;;;;;;362.90;276.33;;;435.40;2048.00;;;;;;5007947;28;20446;-61
2022/01/05 11:38:12;;;;;;;24.77;15.30;;;435.50;1920.00;;;;;;5006751;28;20108;-63
2022/01/05 11:40:40;;;;;;;15.93;11.18;;;435.70;1894.40;;;;;;4996154;28;20140;-70
2022/01/05 11:43:13;;;;;;;42.22;24.67;;;435.60;1868.80;;;;;;4993576;28;20022;-63
2022/01/05 11:45:45;;;;;;;21.60;14.15;;;435.60;1894.40;;;;;;4992452;28;20097;-69
2022/01/05 11:48:16;;;;;;;25.75;14.18;;;435.70;1894.40;;;;;;4991100;28;20117;-63
2022/01/05 11:50:44;;;;;;;28.20;16.85;;;435.90;1868.80;;;;;;4993336;28;20033;-63
2022/01/05 11:53:10;;;;;;;33.17;20.17;;;436.00;1868.80;;;;;;4993425;28;20022;-72
2022/01/05 11:55:58;;;;;;;41.05;23.75;;;435.70;1868.80;;;;;;4977752;28;20028;-62
2022/01/05 11:58:26;;;;;;;26.88;16.55;;;435.60;1920.00;;;;;;4999865;28;20112;-63
2022/01/05 12:01:17;;;;;;;24.80;14.45;;;435.70;1868.80;;;;;;5002619;28;20026;-69
2022/01/05 12:03:58;;;;;;;23.98;12.10;;;436.10;1843.20;;;;;;5008962;28;20025;-61
2022/01/05 12:06:32;;;;;;;20.98;11.77;;;461.00;1843.20;;;;;;5013522;28;20029;-62
2022/01/05 12:09:19;;;;;;;18.48;11.30;;;461.50;1817.60;;;;;;5013543;28;20033;-67